»·PEaware :: N7474B KSMX-KBFL

N7474B :: KSMX-KBFL

FLIGHT INFORMATION

Flight Status: Arrived
Operator: Privately registered:
United States
More flights under this callsign
Pilot: Wayne R. (17783)
Aircraft: CESSNA 172 SKYHAWK
(C172)
More flights by this aircraft type
Origin: KSMX Santa Maria Pub/Capt Hancock
United States
Destination: KBFL Meadows
United States
More flights between these airports :: More routes between these airports
Route: +
File this flight plan on PilotEdge
Remarks:
Altitude:
(Current/Filed)
7,500ft
Speed:
(Current/Filed)
0kts
Departed: 05-Jan-18 08:41 PM
Arrived: 05-Jan-18 09:25 PM
Distance/Time
Traveled:
0nm/0:44
Distance/Time
To Go:
Arrived

Flight Plot

Page will automatically refresh every two minutes.


Map Options




Map Legend


Flown Route
Filed Route
Departure Airport
Arrival Airport
Navaid (VOR, NDB)
Fix

Horizontal Profiles

Position Reports

Time Latitude Longitude Heading Altitude Ground
Speed
05-Jan-18 20:45 34.893621 -120.444438 288 264ft 7kts
05-Jan-18 20:46 34.893576 -120.445694 194 264ft 0kts
05-Jan-18 20:47 34.898505 -120.452716 314 387ft 77kts
05-Jan-18 20:48 34.916661 -120.459236 55 1162ft 95kts
05-Jan-18 20:49 34.933307 -120.428754 58 1622ft 111kts
05-Jan-18 20:50 34.949669 -120.396388 58 2123ft 112kts
05-Jan-18 20:51 34.966036 -120.364010 58 2621ft 111kts
05-Jan-18 20:52 34.982220 -120.331984 58 3119ft 110kts
05-Jan-18 20:53 34.997884 -120.299337 63 3502ft 118kts
05-Jan-18 20:54 35.012811 -120.261348 64 3502ft 127kts
05-Jan-18 20:55 35.027608 -120.223788 64 3496ft 116kts
05-Jan-18 20:56 35.041136 -120.189323 63 3752ft 106kts
05-Jan-18 20:57 35.052946 -120.157385 63 4242ft 101kts
05-Jan-18 20:58 35.063645 -120.125637 63 4734ft 100kts
05-Jan-18 20:59 35.074951 -120.094462 56 5227ft 100kts
05-Jan-18 21:00 35.088121 -120.062264 57 5493ft 118kts
05-Jan-18 21:01 35.104105 -120.023824 60 5298ft 134kts
05-Jan-18 21:02 35.117144 -119.983578 64 5215ft 120kts
05-Jan-18 21:03 35.128818 -119.946104 64 5209ft 117kts
05-Jan-18 21:04 35.140407 -119.908819 64 5207ft 117kts
05-Jan-18 21:05 35.152100 -119.871286 64 5212ft 120kts
05-Jan-18 21:06 35.164168 -119.832745 64 5215ft 121kts
05-Jan-18 21:07 35.177174 -119.794826 60 5216ft 120kts
05-Jan-18 21:08 35.191250 -119.757584 60 5217ft 120kts
05-Jan-18 21:09 35.205390 -119.720267 60 5215ft 120kts
05-Jan-18 21:10 35.219488 -119.683098 60 5217ft 120kts
05-Jan-18 21:11 35.233347 -119.645748 61 5218ft 120kts
05-Jan-18 21:12 35.247008 -119.608113 61 5219ft 120kts
05-Jan-18 21:13 35.259934 -119.570279 65 5221ft 120kts
05-Jan-18 21:14 35.271680 -119.531927 65 5225ft 119kts
05-Jan-18 21:15 35.284330 -119.494236 69 5227ft 120kts
05-Jan-18 21:16 35.294650 -119.456239 65 5223ft 115kts
05-Jan-18 21:17 35.306900 -119.419963 65 5222ft 114kts
05-Jan-18 21:18 35.318845 -119.383872 65 4998ft 117kts
05-Jan-18 21:19 35.331612 -119.346645 67 4601ft 119kts
05-Jan-18 21:20 35.343689 -119.308992 67 4199ft 118kts
05-Jan-18 21:21 35.354873 -119.268765 82 3790ft 120kts
05-Jan-18 21:22 35.358706 -119.229211 83 3493ft 109kts
05-Jan-18 21:23 35.362227 -119.198320 79 3192ft 110kts
05-Jan-18 21:24 35.368840 -119.155522 79 2727ft 109kts
05-Jan-18 21:25 35.374389 -119.119636 79 2493ft 99kts
05-Jan-18 21:26 35.378486 -119.092865 79 2498ft 94kts
05-Jan-18 21:27 35.384006 -119.056651 80 2231ft 85kts
05-Jan-18 21:28 35.395749 -119.038979 10 1581ft 81kts
05-Jan-18 21:29 35.417640 -119.037985 339 765ft 85kts
05-Jan-18 21:30 35.434927 -119.057454 317 510ft 62kts
05-Jan-18 21:31 35.440335 -119.062396 67 510ft 3kts
05-Jan-18 21:32 35.440345 -119.062365 67 510ft 0kts
05-Jan-18 21:33 35.440340 -119.061896 116 510ft 12kts
05-Jan-18 21:34 35.437706 -119.056800 81 510ft 14kts
05-Jan-18 21:35 35.437029 -119.056272 182 510ft 0kts
05-Jan-18 21:36 35.437029 -119.056272 182 510ft 0kts
05-Jan-18 21:37 34.906336 -120.457588 132 264ft 0kts
05-Jan-18 21:38 34.906336 -120.457587 132 264ft 0kts
05-Jan-18 21:39 34.906336 -120.457587 132 264ft 0kts
05-Jan-18 21:40 34.906335 -120.457587 132 264ft 0kts
05-Jan-18 21:41 34.906328 -120.457577 132 264ft 0kts
05-Jan-18 21:42 34.906321 -120.457567 131 264ft 0kts

Navigation Log

Ident Type
Flight plan parsing failed, navigation log unavailable